sensor_id;sensor_type;location;lat;lon;timestamp;P1;durP1;ratioP1;P2;durP2;ratioP2
18376;SDS011;9315;52.624;13.544;2022-07-01T00:02:21;11.43;;;8.13;;
18376;SDS011;9315;52.624;13.544;2022-07-01T00:04:49;9.50;;;8.52;;
18376;SDS011;9315;52.624;13.544;2022-07-01T00:07:16;9.20;;;8.30;;
18376;SDS011;9315;52.624;13.544;2022-07-01T00:09:44;9.60;;;8.60;;
18376;SDS011;9315;52.624;13.544;2022-07-01T00:12:11;8.40;;;7.60;;
18376;SDS011;9315;52.624;13.544;2022-07-01T00:14:38;8.88;;;8.05;;
18376;SDS011;9315;52.624;13.544;2022-07-01T00:17:05;9.60;;;8.63;;
18376;SDS011;9315;52.624;13.544;2022-07-01T00:19:32;9.60;;;8.57;;
18376;SDS011;9315;52.624;13.544;2022-07-01T00:22:00;9.82;;;8.82;;
18376;SDS011;9315;52.624;13.544;2022-07-01T00:24:27;11.60;;;9.35;;
18376;SDS011;9315;52.624;13.544;2022-07-01T00:26:54;10.02;;;8.68;;
18376;SDS011;9315;52.624;13.544;2022-07-01T00:29:21;10.23;;;9.23;;
18376;SDS011;9315;52.624;13.544;2022-07-01T00:31:48;11.35;;;9.95;;
18376;SDS011;9315;52.624;13.544;2022-07-01T00:34:15;9.75;;;8.75;;
18376;SDS011;9315;52.624;13.544;2022-07-01T00:36:42;11.20;;;9.35;;
18376;SDS011;9315;52.624;13.544;2022-07-01T00:39:09;12.75;;;10.05;;
18376;SDS011;9315;52.624;13.544;2022-07-01T00:41:36;11.02;;;9.73;;
18376;SDS011;9315;52.624;13.544;2022-07-01T00:44:03;13.32;;;9.93;;
18376;SDS011;9315;52.624;13.544;2022-07-01T00:46:31;12.98;;;10.18;;
18376;SDS011;9315;52.624;13.544;2022-07-01T00:48:59;14.52;;;10.93;;
18376;SDS011;9315;52.624;13.544;2022-07-01T00:51:27;10.75;;;9.10;;
18376;SDS011;9315;52.624;13.544;2022-07-01T00:53:55;11.77;;;10.18;;
18376;SDS011;9315;52.624;13.544;2022-07-01T00:56:24;13.98;;;11.43;;
18376;SDS011;9315;52.624;13.544;2022-07-01T00:58:51;10.90;;;9.80;;
18376;SDS011;9315;52.624;13.544;2022-07-01T01:01:18;12.55;;;11.25;;
18376;SDS011;9315;52.624;13.544;2022-07-01T01:03:47;11.13;;;10.02;;
18376;SDS011;9315;52.624;13.544;2022-07-01T01:06:15;11.63;;;10.43;;
18376;SDS011;9315;52.624;13.544;2022-07-01T01:08:42;12.63;;;11.43;;
18376;SDS011;9315;52.624;13.544;2022-07-01T01:11:10;12.13;;;10.88;;
18376;SDS011;9315;52.624;13.544;2022-07-01T01:13:37;11.98;;;10.77;;
18376;SDS011;9315;52.624;13.544;2022-07-01T01:16:04;13.50;;;12.10;;
18376;SDS011;9315;52.624;13.544;2022-07-01T01:18:31;14.32;;;12.48;;
18376;SDS011;9315;52.624;13.544;2022-07-01T01:20:59;14.38;;;12.57;;
18376;SDS011;9315;52.624;13.544;2022-07-01T01:23:27;13.90;;;12.10;;
18376;SDS011;9315;52.624;13.544;2022-07-01T01:25:54;13.40;;;11.57;;
18376;SDS011;9315;52.624;13.544;2022-07-01T01:28:21;12.48;;;11.18;;
18376;SDS011;9315;52.624;13.544;2022-07-01T01:30:50;13.35;;;11.15;;
18376;SDS011;9315;52.624;13.544;2022-07-01T01:33:18;17.23;;;13.10;;
18376;SDS011;9315;52.624;13.544;2022-07-01T01:35:45;16.80;;;15.00;;
18376;SDS011;9315;52.624;13.544;2022-07-01T01:38:12;18.27;;;15.30;;
18376;SDS011;9315;52.624;13.544;2022-07-01T01:40:39;14.73;;;12.80;;
18376;SDS011;9315;52.624;13.544;2022-07-01T01:43:06;13.50;;;12.00;;
18376;SDS011;9315;52.624;13.544;2022-07-01T01:45:33;15.85;;;14.00;;
18376;SDS011;9315;52.624;13.544;2022-07-01T01:48:00;14.23;;;12.73;;
18376;SDS011;9315;52.624;13.544;2022-07-01T01:50:27;14.93;;;13.23;;
18376;SDS011;9315;52.624;13.544;2022-07-01T01:52:55;15.55;;;13.68;;
18376;SDS011;9315;52.624;13.544;2022-07-01T01:55:22;16.20;;;13.38;;
18376;SDS011;9315;52.624;13.544;2022-07-01T01:57:49;14.63;;;13.02;;
18376;SDS011;9315;52.624;13.544;2022-07-01T02:00:16;17.55;;;14.07;;
18376;SDS011;9315;52.624;13.544;2022-07-01T02:02:43;17.27;;;14.02;;
18376;SDS011;9315;52.624;13.544;2022-07-01T02:05:11;17.77;;;13.00;;
18376;SDS011;9315;52.624;13.544;2022-07-01T02:07:41;17.98;;;12.38;;
18376;SDS011;9315;52.624;13.544;2022-07-01T02:10:08;14.80;;;12.82;;
18376;SDS011;9315;52.624;13.544;2022-07-01T02:12:35;20.55;;;15.38;;
18376;SDS011;9315;52.624;13.544;2022-07-01T02:15:03;15.02;;;12.93;;
18376;SDS011;9315;52.624;13.544;2022-07-01T02:17:30;14.57;;;12.52;;
18376;SDS011;9315;52.624;13.544;2022-07-01T02:19:57;16.90;;;15.10;;
18376;SDS011;9315;52.624;13.544;2022-07-01T02:22:24;15.57;;;13.80;;
18376;SDS011;9315;52.624;13.544;2022-07-01T02:24:51;18.65;;;15.13;;
18376;SDS011;9315;52.624;13.544;2022-07-01T02:27:18;18.75;;;14.40;;
18376;SDS011;9315;52.624;13.544;2022-07-01T02:29:45;17.27;;;14.60;;
18376;SDS011;9315;52.624;13.544;2022-07-01T02:32:12;18.17;;;15.80;;
18376;SDS011;9315;52.624;13.544;2022-07-01T02:34:39;18.88;;;15.43;;
18376;SDS011;9315;52.624;13.544;2022-07-01T02:37:07;16.00;;;14.23;;
18376;SDS011;9315;52.624;13.544;2022-07-01T02:39:34;20.65;;;16.55;;
18376;SDS011;9315;52.624;13.544;2022-07-01T02:42:02;23.50;;;15.88;;
18376;SDS011;9315;52.624;13.544;2022-07-01T02:44:47;26.88;;;18.52;;
18376;SDS011;9315;52.624;13.544;2022-07-01T02:47:14;20.40;;;14.70;;
18376;SDS011;9315;52.624;13.544;2022-07-01T02:49:42;17.98;;;15.38;;
18376;SDS011;9315;52.624;13.544;2022-07-01T02:52:09;20.77;;;15.70;;
18376;SDS011;9315;52.624;13.544;2022-07-01T02:54:36;20.77;;;18.05;;
18376;SDS011;9315;52.624;13.544;2022-07-01T02:57:03;25.63;;;20.38;;
18376;SDS011;9315;52.624;13.544;2022-07-01T02:59:30;28.27;;;20.70;;
18376;SDS011;9315;52.624;13.544;2022-07-01T03:01:57;27.23;;;20.85;;
18376;SDS011;9315;52.624;13.544;2022-07-01T03:04:25;22.30;;;17.73;;
18376;SDS011;9315;52.624;13.544;2022-07-01T03:06:52;27.48;;;21.77;;
18376;SDS011;9315;52.624;13.544;2022-07-01T03:09:19;27.10;;;19.67;;
18376;SDS011;9315;52.624;13.544;2022-07-01T03:11:46;18.35;;;16.02;;
18376;SDS011;9315;52.624;13.544;2022-07-01T03:14:13;29.20;;;20.00;;
18376;SDS011;9315;52.624;13.544;2022-07-01T03:16:40;28.40;;;21.40;;
18376;SDS011;9315;52.624;13.544;2022-07-01T03:19:07;28.75;;;18.60;;
18376;SDS011;9315;52.624;13.544;2022-07-01T03:21:35;25.95;;;21.35;;
18376;SDS011;9315;52.624;13.544;2022-07-01T03:24:04;24.85;;;20.77;;
18376;SDS011;9315;52.624;13.544;2022-07-01T03:26:32;26.00;;;20.63;;
18376;SDS011;9315;52.624;13.544;2022-07-01T03:29:04;28.92;;;21.77;;
18376;SDS011;9315;52.624;13.544;2022-07-01T03:31:31;24.60;;;15.25;;
18376;SDS011;9315;52.624;13.544;2022-07-01T03:33:58;19.13;;;14.35;;
18376;SDS011;9315;52.624;13.544;2022-07-01T03:36:25;21.42;;;16.17;;
18376;SDS011;9315;52.624;13.544;2022-07-01T03:38:52;19.50;;;15.70;;
18376;SDS011;9315;52.624;13.544;2022-07-01T03:41:19;27.70;;;19.83;;
18376;SDS011;9315;52.624;13.544;2022-07-01T03:43:46;31.35;;;21.02;;
18376;SDS011;9315;52.624;13.544;2022-07-01T03:46:13;21.13;;;17.20;;
18376;SDS011;9315;52.624;13.544;2022-07-01T03:48:40;20.13;;;15.20;;
18376;SDS011;9315;52.624;13.544;2022-07-01T03:51:08;27.25;;;20.38;;
18376;SDS011;9315;52.624;13.544;2022-07-01T03:53:35;21.42;;;16.90;;
18376;SDS011;9315;52.624;13.544;2022-07-01T03:56:20;20.15;;;14.68;;
18376;SDS011;9315;52.624;13.544;2022-07-01T03:58:47;24.35;;;20.23;;
18376;SDS011;9315;52.624;13.544;2022-07-01T04:01:15;27.27;;;20.05;;
18376;SDS011;9315;52.624;13.544;2022-07-01T04:03:41;27.00;;;20.60;;
18376;SDS011;9315;52.624;13.544;2022-07-01T04:06:09;25.02;;;18.40;;
18376;SDS011;9315;52.624;13.544;2022-07-01T04:08:36;24.73;;;18.15;;
18376;SDS011;9315;52.624;13.544;2022-07-01T04:11:03;25.90;;;19.42;;
18376;SDS011;9315;52.624;13.544;2022-07-01T04:13:34;24.80;;;18.40;;
18376;SDS011;9315;52.624;13.544;2022-07-01T04:16:05;23.77;;;19.25;;
18376;SDS011;9315;52.624;13.544;2022-07-01T04:18:33;21.45;;;18.48;;
18376;SDS011;9315;52.624;13.544;2022-07-01T04:21:00;25.75;;;19.75;;
18376;SDS011;9315;52.624;13.544;2022-07-01T04:23:46;24.67;;;19.38;;
18376;SDS011;9315;52.624;13.544;2022-07-01T04:26:13;23.48;;;18.00;;
18376;SDS011;9315;52.624;13.544;2022-07-01T04:29:00;22.17;;;18.13;;
18376;SDS011;9315;52.624;13.544;2022-07-01T04:31:27;21.10;;;18.33;;
18376;SDS011;9315;52.624;13.544;2022-07-01T04:33:54;23.23;;;18.27;;
18376;SDS011;9315;52.624;13.544;2022-07-01T04:36:21;22.77;;;17.83;;
18376;SDS011;9315;52.624;13.544;2022-07-01T04:38:48;24.90;;;20.15;;
18376;SDS011;9315;52.624;13.544;2022-07-01T04:41:16;26.02;;;19.23;;
18376;SDS011;9315;52.624;13.544;2022-07-01T04:44:02;22.52;;;19.25;;
18376;SDS011;9315;52.624;13.544;2022-07-01T04:46:30;23.35;;;19.27;;
18376;SDS011;9315;52.624;13.544;2022-07-01T04:48:57;23.33;;;18.77;;
18376;SDS011;9315;52.624;13.544;2022-07-01T04:51:24;21.00;;;17.95;;
18376;SDS011;9315;52.624;13.544;2022-07-01T04:53:51;24.27;;;17.75;;
18376;SDS011;9315;52.624;13.544;2022-07-01T04:56:19;20.55;;;18.35;;
18376;SDS011;9315;52.624;13.544;2022-07-01T04:58:49;24.75;;;19.45;;
18376;SDS011;9315;52.624;13.544;2022-07-01T05:01:16;20.98;;;16.92;;
18376;SDS011;9315;52.624;13.544;2022-07-01T05:03:43;21.45;;;17.73;;
18376;SDS011;9315;52.624;13.544;2022-07-01T05:06:10;22.65;;;17.67;;
18376;SDS011;9315;52.624;13.544;2022-07-01T05:08:37;21.13;;;17.85;;
18376;SDS011;9315;52.624;13.544;2022-07-01T05:11:04;25.58;;;19.13;;
18376;SDS011;9315;52.624;13.544;2022-07-01T05:13:32;19.98;;;17.17;;
18376;SDS011;9315;52.624;13.544;2022-07-01T05:16:00;22.30;;;17.58;;
18376;SDS011;9315;52.624;13.544;2022-07-01T05:18:28;23.40;;;17.77;;
18376;SDS011;9315;52.624;13.544;2022-07-01T05:21:13;24.48;;;19.50;;
18376;SDS011;9315;52.624;13.544;2022-07-01T05:24:00;24.17;;;18.92;;
18376;SDS011;9315;52.624;13.544;2022-07-01T05:26:27;23.20;;;16.65;;
18376;SDS011;9315;52.624;13.544;2022-07-01T05:28:54;25.23;;;16.40;;
18376;SDS011;9315;52.624;13.544;2022-07-01T05:31:21;20.90;;;17.20;;
18376;SDS011;9315;52.624;13.544;2022-07-01T05:33:48;20.75;;;17.38;;
18376;SDS011;9315;52.624;13.544;2022-07-01T05:36:16;21.40;;;15.82;;
18376;SDS011;9315;52.624;13.544;2022-07-01T05:38:43;20.20;;;16.48;;
18376;SDS011;9315;52.624;13.544;2022-07-01T05:41:10;18.60;;;16.40;;
18376;SDS011;9315;52.624;13.544;2022-07-01T05:43:37;22.00;;;16.35;;
18376;SDS011;9315;52.624;13.544;2022-07-01T05:46:04;20.63;;;16.75;;
18376;SDS011;9315;52.624;13.544;2022-07-01T05:48:31;20.33;;;17.27;;
18376;SDS011;9315;52.624;13.544;2022-07-01T05:50:58;24.50;;;15.77;;
18376;SDS011;9315;52.624;13.544;2022-07-01T05:53:25;20.23;;;16.67;;
18376;SDS011;9315;52.624;13.544;2022-07-01T05:55:52;19.92;;;16.45;;
18376;SDS011;9315;52.624;13.544;2022-07-01T05:58:19;20.17;;;14.38;;
18376;SDS011;9315;52.624;13.544;2022-07-01T06:00:46;20.98;;;15.75;;
18376;SDS011;9315;52.624;13.544;2022-07-01T06:03:14;22.90;;;15.85;;
18376;SDS011;9315;52.624;13.544;2022-07-01T06:05:41;18.50;;;14.93;;
18376;SDS011;9315;52.624;13.544;2022-07-01T06:08:09;18.23;;;15.80;;
18376;SDS011;9315;52.624;13.544;2022-07-01T06:10:36;21.70;;;17.10;;
18376;SDS011;9315;52.624;13.544;2022-07-01T06:13:04;23.42;;;17.42;;
18376;SDS011;9315;52.624;13.544;2022-07-01T06:15:31;16.85;;;14.93;;
18376;SDS011;9315;52.624;13.544;2022-07-01T06:17:59;18.98;;;16.50;;
18376;SDS011;9315;52.624;13.544;2022-07-01T06:20:26;21.27;;;15.80;;
18376;SDS011;9315;52.624;13.544;2022-07-01T06:22:54;17.35;;;14.93;;
18376;SDS011;9315;52.624;13.544;2022-07-01T06:25:21;20.98;;;14.95;;
18376;SDS011;9315;52.624;13.544;2022-07-01T06:27:48;17.60;;;14.48;;
18376;SDS011;9315;52.624;13.544;2022-07-01T06:30:16;24.80;;;16.05;;
18376;SDS011;9315;52.624;13.544;2022-07-01T06:32:43;19.63;;;15.70;;
18376;SDS011;9315;52.624;13.544;2022-07-01T06:35:10;22.33;;;16.48;;
18376;SDS011;9315;52.624;13.544;2022-07-01T06:37:37;20.17;;;15.45;;
18376;SDS011;9315;52.624;13.544;2022-07-01T06:40:11;18.10;;;14.75;;
18376;SDS011;9315;52.624;13.544;2022-07-01T06:42:38;19.58;;;16.10;;
18376;SDS011;9315;52.624;13.544;2022-07-01T06:45:05;19.05;;;16.00;;
18376;SDS011;9315;52.624;13.544;2022-07-01T06:47:33;22.73;;;17.05;;
18376;SDS011;9315;52.624;13.544;2022-07-01T06:50:01;20.33;;;16.55;;
18376;SDS011;9315;52.624;13.544;2022-07-01T06:52:30;20.20;;;15.80;;
18376;SDS011;9315;52.624;13.544;2022-07-01T06:54:57;21.00;;;16.33;;
18376;SDS011;9315;52.624;13.544;2022-07-01T06:57:25;21.13;;;17.50;;
18376;SDS011;9315;52.624;13.544;2022-07-01T06:59:53;23.20;;;16.65;;
18376;SDS011;9315;52.624;13.544;2022-07-01T07:02:20;19.10;;;15.70;;
18376;SDS011;9315;52.624;13.544;2022-07-01T07:04:52;26.33;;;16.88;;
18376;SDS011;9315;52.624;13.544;2022-07-01T07:07:27;22.20;;;17.58;;
18376;SDS011;9315;52.624;13.544;2022-07-01T07:09:54;21.00;;;17.30;;
18376;SDS011;9315;52.624;13.544;2022-07-01T07:12:23;20.98;;;16.70;;
18376;SDS011;9315;52.624;13.544;2022-07-01T07:14:50;22.60;;;18.70;;
18376;SDS011;9315;52.624;13.544;2022-07-01T07:17:17;24.00;;;17.38;;
18376;SDS011;9315;52.624;13.544;2022-07-01T07:19:45;21.35;;;17.92;;
18376;SDS011;9315;52.624;13.544;2022-07-01T07:22:12;25.55;;;17.70;;
18376;SDS011;9315;52.624;13.544;2022-07-01T07:24:39;20.25;;;18.20;;
18376;SDS011;9315;52.624;13.544;2022-07-01T07:27:07;24.38;;;17.88;;
18376;SDS011;9315;52.624;13.544;2022-07-01T07:29:34;21.33;;;17.73;;
18376;SDS011;9315;52.624;13.544;2022-07-01T07:32:01;21.58;;;18.27;;
18376;SDS011;9315;52.624;13.544;2022-07-01T07:34:29;19.63;;;17.08;;
18376;SDS011;9315;52.624;13.544;2022-07-01T07:36:56;20.35;;;16.70;;
18376;SDS011;9315;52.624;13.544;2022-07-01T07:39:23;26.45;;;16.88;;
18376;SDS011;9315;52.624;13.544;2022-07-01T07:41:56;18.40;;;15.95;;
18376;SDS011;9315;52.624;13.544;2022-07-01T07:44:23;18.45;;;14.93;;
18376;SDS011;9315;52.624;13.544;2022-07-01T07:46:51;20.95;;;15.90;;
18376;SDS011;9315;52.624;13.544;2022-07-01T07:49:18;22.10;;;15.68;;
18376;SDS011;9315;52.624;13.544;2022-07-01T07:51:45;17.48;;;14.32;;
18376;SDS011;9315;52.624;13.544;2022-07-01T07:54:12;20.38;;;13.60;;
18376;SDS011;9315;52.624;13.544;2022-07-01T07:56:39;21.48;;;14.50;;
18376;SDS011;9315;52.624;13.544;2022-07-01T07:59:10;19.88;;;15.18;;
18376;SDS011;9315;52.624;13.544;2022-07-01T08:01:38;20.70;;;15.70;;
18376;SDS011;9315;52.624;13.544;2022-07-01T08:04:05;21.42;;;15.43;;
18376;SDS011;9315;52.624;13.544;2022-07-01T08:06:33;18.83;;;16.23;;
18376;SDS011;9315;52.624;13.544;2022-07-01T08:09:00;16.90;;;15.13;;
18376;SDS011;9315;52.624;13.544;2022-07-01T08:11:27;16.92;;;15.18;;
18376;SDS011;9315;52.624;13.544;2022-07-01T08:13:54;17.63;;;14.30;;
18376;SDS011;9315;52.624;13.544;2022-07-01T08:16:22;16.50;;;14.55;;
18376;SDS011;9315;52.624;13.544;2022-07-01T08:18:49;15.95;;;13.40;;
18376;SDS011;9315;52.624;13.544;2022-07-01T08:21:16;18.70;;;15.50;;
18376;SDS011;9315;52.624;13.544;2022-07-01T08:23:43;17.67;;;14.30;;
18376;SDS011;9315;52.624;13.544;2022-07-01T08:26:10;16.10;;;14.40;;
18376;SDS011;9315;52.624;13.544;2022-07-01T08:28:40;16.60;;;14.23;;
18376;SDS011;9315;52.624;13.544;2022-07-01T08:31:07;16.63;;;13.43;;
18376;SDS011;9315;52.624;13.544;2022-07-01T08:33:35;16.10;;;13.80;;
18376;SDS011;9315;52.624;13.544;2022-07-01T08:36:06;15.40;;;13.32;;
18376;SDS011;9315;52.624;13.544;2022-07-01T08:38:35;15.50;;;13.15;;
18376;SDS011;9315;52.624;13.544;2022-07-01T08:41:03;15.43;;;13.88;;
18376;SDS011;9315;52.624;13.544;2022-07-01T08:43:31;18.77;;;12.00;;
18376;SDS011;9315;52.624;13.544;2022-07-01T08:45:59;16.20;;;12.18;;
18376;SDS011;9315;52.624;13.544;2022-07-01T08:48:29;15.05;;;13.45;;
18376;SDS011;9315;52.624;13.544;2022-07-01T08:50:57;15.48;;;12.35;;
18376;SDS011;9315;52.624;13.544;2022-07-01T08:53:24;15.50;;;12.25;;
18376;SDS011;9315;52.624;13.544;2022-07-01T08:55:51;16.45;;;12.80;;
18376;SDS011;9315;52.624;13.544;2022-07-01T08:58:36;15.90;;;11.55;;
18376;SDS011;9315;52.624;13.544;2022-07-01T09:01:13;11.70;;;10.50;;
18376;SDS011;9315;52.624;13.544;2022-07-01T09:03:48;11.00;;;9.73;;
18376;SDS011;9315;52.624;13.544;2022-07-01T09:08:54;14.18;;;9.95;;
18376;SDS011;9315;52.624;13.544;2022-07-01T09:11:35;12.27;;;10.02;;
18376;SDS011;9315;52.624;13.544;2022-07-01T09:14:10;17.13;;;10.32;;
18376;SDS011;9315;52.624;13.544;2022-07-01T09:19:25;9.95;;;8.90;;
18376;SDS011;9315;52.624;13.544;2022-07-01T09:21:56;11.40;;;7.78;;
18376;SDS011;9315;52.624;13.544;2022-07-01T09:27:05;12.88;;;8.05;;
18376;SDS011;9315;52.624;13.544;2022-07-01T09:29:49;9.60;;;7.88;;
18376;SDS011;9315;52.624;13.544;2022-07-01T09:32:21;12.65;;;8.02;;
18376;SDS011;9315;52.624;13.544;2022-07-01T09:34:50;11.65;;;7.88;;
18376;SDS011;9315;52.624;13.544;2022-07-01T09:37:23;11.02;;;7.97;;
18376;SDS011;9315;52.624;13.544;2022-07-01T09:39:52;9.65;;;7.88;;
18376;SDS011;9315;52.624;13.544;2022-07-01T09:42:23;9.68;;;8.20;;
18376;SDS011;9315;52.624;13.544;2022-07-01T09:47:31;10.15;;;8.82;;
18376;SDS011;9315;52.624;13.544;2022-07-01T09:50:03;10.10;;;8.95;;
18376;SDS011;9315;52.624;13.544;2022-07-01T09:52:31;10.63;;;8.52;;
18376;SDS011;9315;52.624;13.544;2022-07-01T09:55:03;14.70;;;9.15;;
18376;SDS011;9315;52.624;13.544;2022-07-01T09:57:32;10.45;;;5.00;;
18376;SDS011;9315;52.624;13.544;2022-07-01T10:00:00;17.20;;;5.32;;
18376;SDS011;9315;52.624;13.544;2022-07-01T10:02:27;12.50;;;4.68;;
18376;SDS011;9315;52.624;13.544;2022-07-01T10:05:01;11.05;;;4.50;;
18376;SDS011;9315;52.624;13.544;2022-07-01T10:14:03;7.63;;;2.63;;
18376;SDS011;9315;52.624;13.544;2022-07-01T10:16:32;4.05;;;2.58;;
18376;SDS011;9315;52.624;13.544;2022-07-01T10:19:23;5.68;;;2.30;;
18376;SDS011;9315;52.624;13.544;2022-07-01T10:21:57;6.25;;;1.83;;
18376;SDS011;9315;52.624;13.544;2022-07-01T10:37:30;1.77;;;1.30;;
18376;SDS011;9315;52.624;13.544;2022-07-01T10:40:00;3.22;;;1.25;;
18376;SDS011;9315;52.624;13.544;2022-07-01T10:42:33;1.73;;;1.20;;
18376;SDS011;9315;52.624;13.544;2022-07-01T10:45:43;1.10;;;1.00;;
18376;SDS011;9315;52.624;13.544;2022-07-01T10:50:48;2.80;;;1.05;;
18376;SDS011;9315;52.624;13.544;2022-07-01T10:53:17;1.15;;;1.00;;
18376;SDS011;9315;52.624;13.544;2022-07-01T10:55:46;3.83;;;1.30;;
18376;SDS011;9315;52.624;13.544;2022-07-01T10:58:35;1.52;;;1.10;;
18376;SDS011;9315;52.624;13.544;2022-07-01T11:01:06;3.53;;;1.02;;
18376;SDS011;9315;52.624;13.544;2022-07-01T11:03:34;1.10;;;0.90;;
18376;SDS011;9315;52.624;13.544;2022-07-01T11:06:06;3.97;;;1.00;;
18376;SDS011;9315;52.624;13.544;2022-07-01T11:08:34;2.65;;;0.98;;
18376;SDS011;9315;52.624;13.544;2022-07-01T11:11:01;0.90;;;0.90;;
18376;SDS011;9315;52.624;13.544;2022-07-01T11:13:31;2.30;;;0.75;;
18376;SDS011;9315;52.624;13.544;2022-07-01T11:16:01;1.80;;;1.02;;
18376;SDS011;9315;52.624;13.544;2022-07-01T11:18:28;1.65;;;0.93;;
18376;SDS011;9315;52.624;13.544;2022-07-01T11:21:07;3.28;;;0.70;;
18376;SDS011;9315;52.624;13.544;2022-07-01T11:23:36;1.63;;;0.70;;
18376;SDS011;9315;52.624;13.544;2022-07-01T11:26:07;1.33;;;0.50;;
18376;SDS011;9315;52.624;13.544;2022-07-01T11:28:50;0.93;;;0.60;;
18376;SDS011;9315;52.624;13.544;2022-07-01T11:31:36;1.20;;;0.50;;
18376;SDS011;9315;52.624;13.544;2022-07-01T11:34:03;0.32;;;0.32;;
18376;SDS011;9315;52.624;13.544;2022-07-01T11:36:32;0.60;;;0.35;;
18376;SDS011;9315;52.624;13.544;2022-07-01T11:39:19;0.98;;;0.47;;
18376;SDS011;9315;52.624;13.544;2022-07-01T11:41:56;0.43;;;0.22;;
18376;SDS011;9315;52.624;13.544;2022-07-01T11:44:30;2.47;;;0.40;;
18376;SDS011;9315;52.624;13.544;2022-07-01T11:47:10;0.20;;;0.20;;
18376;SDS011;9315;52.624;13.544;2022-07-01T11:49:49;2.15;;;0.50;;
18376;SDS011;9315;52.624;13.544;2022-07-01T11:52:17;2.60;;;0.20;;
18376;SDS011;9315;52.624;13.544;2022-07-01T11:54:47;0.47;;;0.30;;
18376;SDS011;9315;52.624;13.544;2022-07-01T11:57:40;3.97;;;0.60;;
18376;SDS011;9315;52.624;13.544;2022-07-01T12:00:09;1.85;;;0.43;;
18376;SDS011;9315;52.624;13.544;2022-07-01T12:02:39;2.58;;;1.10;;
18376;SDS011;9315;52.624;13.544;2022-07-01T12:05:06;1.75;;;0.50;;
18376;SDS011;9315;52.624;13.544;2022-07-01T12:07:34;0.70;;;0.60;;
18376;SDS011;9315;52.624;13.544;2022-07-01T12:10:01;2.70;;;0.80;;
18376;SDS011;9315;52.624;13.544;2022-07-01T12:12:28;2.17;;;0.65;;
18376;SDS011;9315;52.624;13.544;2022-07-01T12:14:56;3.30;;;0.57;;
18376;SDS011;9315;52.624;13.544;2022-07-01T12:17:25;1.30;;;0.57;;
18376;SDS011;9315;52.624;13.544;2022-07-01T12:19:54;2.80;;;0.60;;
18376;SDS011;9315;52.624;13.544;2022-07-01T12:22:25;0.68;;;0.50;;
18376;SDS011;9315;52.624;13.544;2022-07-01T12:25:06;2.58;;;0.43;;
18376;SDS011;9315;52.624;13.544;2022-07-01T12:27:41;4.30;;;0.60;;
18376;SDS011;9315;52.624;13.544;2022-07-01T12:30:22;0.73;;;0.50;;
18376;SDS011;9315;52.624;13.544;2022-07-01T12:32:56;0.43;;;0.38;;
18376;SDS011;9315;52.624;13.544;2022-07-01T12:35:39;2.05;;;0.50;;
18376;SDS011;9315;52.624;13.544;2022-07-01T12:38:14;2.30;;;0.43;;
18376;SDS011;9315;52.624;13.544;2022-07-01T12:40:42;1.48;;;0.73;;
18376;SDS011;9315;52.624;13.544;2022-07-01T12:43:22;1.98;;;0.50;;
18376;SDS011;9315;52.624;13.544;2022-07-01T12:46:04;0.55;;;0.40;;
18376;SDS011;9315;52.624;13.544;2022-07-01T12:48:46;0.50;;;0.40;;
18376;SDS011;9315;52.624;13.544;2022-07-01T12:51:15;1.27;;;0.80;;
18376;SDS011;9315;52.624;13.544;2022-07-01T12:53:42;1.80;;;0.73;;
18376;SDS011;9315;52.624;13.544;2022-07-01T12:56:21;1.27;;;1.13;;
18376;SDS011;9315;52.624;13.544;2022-07-01T12:58:51;1.10;;;1.10;;
18376;SDS011;9315;52.624;13.544;2022-07-01T13:01:19;2.03;;;1.17;;
18376;SDS011;9315;52.624;13.544;2022-07-01T13:03:47;2.35;;;1.35;;
18376;SDS011;9315;52.624;13.544;2022-07-01T13:06:15;1.88;;;1.50;;
18376;SDS011;9315;52.624;13.544;2022-07-01T13:08:42;2.00;;;1.25;;
18376;SDS011;9315;52.624;13.544;2022-07-01T13:11:09;1.70;;;1.60;;
18376;SDS011;9315;52.624;13.544;2022-07-01T13:13:36;32.47;;;20.50;;
18376;SDS011;9315;52.624;13.544;2022-07-01T13:16:03;1.33;;;1.33;;
18376;SDS011;9315;52.624;13.544;2022-07-01T13:18:31;1.92;;;1.80;;
18376;SDS011;9315;52.624;13.544;2022-07-01T13:20:58;1.90;;;1.80;;
18376;SDS011;9315;52.624;13.544;2022-07-01T13:23:25;2.88;;;2.50;;
18376;SDS011;9315;52.624;13.544;2022-07-01T13:25:52;2.47;;;2.28;;
18376;SDS011;9315;52.624;13.544;2022-07-01T13:28:19;2.13;;;1.75;;
18376;SDS011;9315;52.624;13.544;2022-07-01T13:30:46;3.22;;;2.10;;
18376;SDS011;9315;52.624;13.544;2022-07-01T13:33:13;2.22;;;2.13;;
18376;SDS011;9315;52.624;13.544;2022-07-01T13:35:40;2.80;;;2.10;;
18376;SDS011;9315;52.624;13.544;2022-07-01T13:38:08;2.33;;;2.13;;
18376;SDS011;9315;52.624;13.544;2022-07-01T13:40:35;2.85;;;2.53;;
18376;SDS011;9315;52.624;13.544;2022-07-01T13:43:02;2.70;;;2.50;;
18376;SDS011;9315;52.624;13.544;2022-07-01T13:45:29;3.10;;;2.80;;
18376;SDS011;9315;52.624;13.544;2022-07-01T13:47:56;2.50;;;2.28;;
18376;SDS011;9315;52.624;13.544;2022-07-01T13:50:23;3.00;;;2.72;;
18376;SDS011;9315;52.624;13.544;2022-07-01T13:52:50;2.67;;;2.47;;
18376;SDS011;9315;52.624;13.544;2022-07-01T13:55:17;3.33;;;2.92;;
18376;SDS011;9315;52.624;13.544;2022-07-01T13:57:45;2.60;;;2.40;;
18376;SDS011;9315;52.624;13.544;2022-07-01T14:00:12;2.95;;;2.72;;
18376;SDS011;9315;52.624;13.544;2022-07-01T14:02:41;4.07;;;2.90;;
18376;SDS011;9315;52.624;13.544;2022-07-01T14:05:09;2.63;;;2.42;;
18376;SDS011;9315;52.624;13.544;2022-07-01T14:07:36;3.63;;;2.20;;
18376;SDS011;9315;52.624;13.544;2022-07-01T14:10:04;3.97;;;2.75;;
18376;SDS011;9315;52.624;13.544;2022-07-01T14:12:32;2.83;;;2.63;;
18376;SDS011;9315;52.624;13.544;2022-07-01T14:14:59;2.65;;;2.40;;
18376;SDS011;9315;52.624;13.544;2022-07-01T14:17:27;1.65;;;1.52;;
18376;SDS011;9315;52.624;13.544;2022-07-01T14:19:54;6.95;;;2.30;;
18376;SDS011;9315;52.624;13.544;2022-07-01T14:22:22;2.03;;;1.92;;
18376;SDS011;9315;52.624;13.544;2022-07-01T14:24:51;2.50;;;2.30;;
18376;SDS011;9315;52.624;13.544;2022-07-01T14:27:19;1.90;;;1.80;;
18376;SDS011;9315;52.624;13.544;2022-07-01T14:29:46;2.47;;;2.28;;
18376;SDS011;9315;52.624;13.544;2022-07-01T14:32:21;3.00;;;2.10;;
18376;SDS011;9315;52.624;13.544;2022-07-01T14:34:52;2.70;;;2.50;;
18376;SDS011;9315;52.624;13.544;2022-07-01T14:37:20;3.67;;;2.05;;
18376;SDS011;9315;52.624;13.544;2022-07-01T14:39:48;2.38;;;2.03;;
18376;SDS011;9315;52.624;13.544;2022-07-01T14:42:19;1.85;;;1.75;;
18376;SDS011;9315;52.624;13.544;2022-07-01T14:44:46;2.30;;;1.70;;
18376;SDS011;9315;52.624;13.544;2022-07-01T14:47:13;3.83;;;1.90;;
18376;SDS011;9315;52.624;13.544;2022-07-01T14:49:40;2.10;;;2.00;;
18376;SDS011;9315;52.624;13.544;2022-07-01T14:52:08;2.55;;;2.35;;
18376;SDS011;9315;52.624;13.544;2022-07-01T14:54:36;4.10;;;1.80;;
18376;SDS011;9315;52.624;13.544;2022-07-01T14:57:05;3.50;;;2.20;;
18376;SDS011;9315;52.624;13.544;2022-07-01T14:59:32;2.17;;;1.85;;
18376;SDS011;9315;52.624;13.544;2022-07-01T15:02:00;3.17;;;2.13;;
18376;SDS011;9315;52.624;13.544;2022-07-01T15:04:30;2.28;;;1.98;;
18376;SDS011;9315;52.624;13.544;2022-07-01T15:06:57;2.13;;;1.92;;
18376;SDS011;9315;52.624;13.544;2022-07-01T15:09:25;2.97;;;2.78;;
18376;SDS011;9315;52.624;13.544;2022-07-01T15:11:52;3.08;;;2.58;;
18376;SDS011;9315;52.624;13.544;2022-07-01T15:14:21;3.20;;;3.00;;
18376;SDS011;9315;52.624;13.544;2022-07-01T15:16:48;4.45;;;3.10;;